createdAt,value
2022-12-28T00:00:08.087Z,0.60
2022-12-28T00:02:36.514Z,0.40
2022-12-28T00:05:04.986Z,2.90
2022-12-28T00:07:34.903Z,1.70
2022-12-28T00:10:03.127Z,1.20
2022-12-28T00:12:32.909Z,0.80
2022-12-28T00:15:01.268Z,0.70
2022-12-28T00:17:29.753Z,0.60
2022-12-28T00:19:59.464Z,0.80
2022-12-28T00:22:28.865Z,0.50
2022-12-28T00:24:58.370Z,0.40
2022-12-28T00:27:29.313Z,0.40
2022-12-28T00:29:57.867Z,0.50
2022-12-28T00:32:26.177Z,0.20
2022-12-28T00:34:54.758Z,0.30
2022-12-28T00:37:23.236Z,0.10
2022-12-28T00:39:52.024Z,0.30
2022-12-28T00:42:21.838Z,0.40
2022-12-28T00:44:50.032Z,0.10
2022-12-28T00:47:18.186Z,0.10
2022-12-28T00:49:46.669Z,0.20
2022-12-28T00:52:14.944Z,0.00
2022-12-28T00:54:43.171Z,0.10
2022-12-28T00:57:11.532Z,0.40
2022-12-28T00:59:41.393Z,0.10
2022-12-28T01:02:09.725Z,0.00
2022-12-28T01:04:54.152Z,0.00
2022-12-28T01:07:22.845Z,0.20
2022-12-28T01:09:51.091Z,0.00
2022-12-28T01:12:19.410Z,-0.10
2022-12-28T01:14:49.929Z,0.10
2022-12-28T01:17:18.516Z,0.10
2022-12-28T01:19:53.653Z,0.10
2022-12-28T01:22:22.667Z,-0.10
2022-12-28T01:24:51.113Z,0.00
2022-12-28T01:31:58.984Z,-0.30
2022-12-28T01:34:28.863Z,-0.30
2022-12-28T01:36:57.367Z,-0.40
2022-12-28T01:39:25.956Z,-0.40
2022-12-28T01:41:54.254Z,-0.20
2022-12-28T01:44:43.392Z,-0.20
2022-12-28T01:47:36.337Z,-0.30
2022-12-28T01:50:10.567Z,-0.50
2022-12-28T01:52:39.744Z,-0.50
2022-12-28T01:55:10.332Z,-0.60
2022-12-28T01:57:41.005Z,-0.70
2022-12-28T02:00:13.582Z,-0.70
2022-12-28T02:02:46.668Z,-0.70
2022-12-28T02:05:16.479Z,-0.60
2022-12-28T02:07:48.047Z,-0.50
2022-12-28T02:10:44.265Z,-0.60
2022-12-28T02:13:05.516Z,-0.60
2022-12-28T02:15:33.967Z,-0.40
2022-12-28T02:18:02.557Z,-0.50
2022-12-28T02:20:33.178Z,-0.50
2022-12-28T02:23:22.890Z,-0.30
2022-12-28T02:26:28.001Z,-0.60
2022-12-28T02:32:56.845Z,-0.60
2022-12-28T02:35:30.139Z,-0.50
2022-12-28T02:37:59.203Z,-0.50
2022-12-28T02:40:28.731Z,-0.50
2022-12-28T02:42:56.538Z,-0.50
2022-12-28T02:45:57.993Z,-0.50
2022-12-28T02:48:44.569Z,-0.40
2022-12-28T02:51:44.460Z,-0.50
2022-12-28T02:54:58.046Z,-0.60
2022-12-28T02:57:36.543Z,-0.40
2022-12-28T03:00:06.863Z,-0.30
2022-12-28T03:03:05.961Z,-0.30
2022-12-28T03:05:54.873Z,-0.20
2022-12-28T03:08:31.609Z,-0.40
2022-12-28T03:11:03.220Z,-0.60
2022-12-28T03:13:44.469Z,-0.70
2022-12-28T03:16:15.683Z,-0.50
2022-12-28T03:19:01.259Z,-0.20
2022-12-28T03:21:48.035Z,-0.30
2022-12-28T03:24:33.515Z,-0.50
2022-12-28T03:27:19.046Z,-0.70
2022-12-28T03:30:07.046Z,-0.60
2022-12-28T03:32:35.417Z,-0.50
2022-12-28T03:35:03.260Z,-0.50
2022-12-28T03:37:34.490Z,-0.50
2022-12-28T03:40:06.165Z,-0.60
2022-12-28T03:42:53.104Z,-0.70
2022-12-28T03:45:45.505Z,-0.60
2022-12-28T03:48:10.863Z,-0.50
2022-12-28T03:50:39.118Z,-0.50
2022-12-28T03:53:08.374Z,-0.40
2022-12-28T03:55:37.855Z,-0.40
2022-12-28T03:58:06.103Z,-0.30
2022-12-28T04:00:34.214Z,-0.40
2022-12-28T04:03:02.191Z,-0.50
2022-12-28T04:05:30.107Z,-0.50
2022-12-28T04:07:57.918Z,-0.50
2022-12-28T04:10:27.230Z,-0.50
2022-12-28T04:12:56.685Z,-0.50
2022-12-28T04:15:24.550Z,-0.50
2022-12-28T04:17:52.419Z,-0.50
2022-12-28T04:20:20.293Z,-0.50
2022-12-28T04:22:48.212Z,-0.50
2022-12-28T04:25:16.089Z,-0.40
2022-12-28T04:27:45.241Z,-0.50
2022-12-28T04:30:13.413Z,-0.50
2022-12-28T04:32:41.217Z,-0.40
2022-12-28T04:35:09.657Z,-0.30
2022-12-28T04:37:37.782Z,-0.20
2022-12-28T04:40:06.463Z,-0.10
2022-12-28T04:42:35.356Z,-0.20
2022-12-28T04:45:05.086Z,-0.30
2022-12-28T04:47:33.011Z,-0.30
2022-12-28T04:50:00.802Z,-0.30
2022-12-28T04:52:28.627Z,-0.10
2022-12-28T04:54:56.562Z,-0.20
2022-12-28T04:57:24.355Z,-0.40
2022-12-28T04:59:52.147Z,-0.50
2022-12-28T05:02:21.421Z,-0.50
2022-12-28T05:04:49.394Z,-0.30
2022-12-28T05:07:17.207Z,-0.30
2022-12-28T05:09:45.026Z,-0.50
2022-12-28T05:12:12.848Z,-0.40
2022-12-28T05:14:42.167Z,-0.50
2022-12-28T05:17:09.965Z,-0.50
2022-12-28T05:19:39.092Z,-0.30
2022-12-28T05:22:11.712Z,-0.50
2022-12-28T05:24:39.589Z,-0.50
2022-12-28T05:27:07.451Z,-0.50
2022-12-28T05:29:35.733Z,-0.60
2022-12-28T05:32:03.575Z,-0.50
2022-12-28T05:34:31.396Z,-0.40
2022-12-28T05:37:00.722Z,-0.40
2022-12-28T05:39:28.544Z,-0.30
2022-12-28T05:41:59.998Z,-0.30
2022-12-28T05:44:28.235Z,-0.30
2022-12-28T05:46:56.110Z,-0.10
2022-12-28T05:49:24.010Z,-0.10
2022-12-28T05:51:52.696Z,-0.10
2022-12-28T05:54:21.854Z,-0.10
2022-12-28T05:56:51.418Z,0.20
2022-12-28T05:59:19.225Z,0.00
2022-12-28T06:01:47.128Z,0.20
2022-12-28T06:04:16.632Z,0.20
2022-12-28T06:06:44.430Z,0.20
2022-12-28T06:09:12.293Z,0.40
2022-12-28T06:11:41.506Z,0.60
2022-12-28T06:14:09.455Z,0.40
2022-12-28T06:16:40.668Z,0.30
2022-12-28T06:19:09.874Z,0.40
2022-12-28T06:21:38.823Z,0.40
2022-12-28T06:24:07.734Z,0.40
2022-12-28T06:26:36.808Z,0.50
2022-12-28T06:29:06.225Z,0.50
2022-12-28T06:31:35.840Z,0.50
2022-12-28T06:34:04.480Z,0.50
2022-12-28T06:36:34.196Z,0.50
2022-12-28T06:39:02.513Z,0.60
2022-12-28T06:41:30.593Z,0.50
2022-12-28T06:43:58.678Z,0.20
2022-12-28T06:46:28.546Z,0.40
2022-12-28T06:48:56.437Z,0.20
2022-12-28T06:51:25.480Z,0.10
2022-12-28T06:53:53.727Z,0.30
2022-12-28T06:56:22.478Z,0.20
2022-12-28T06:58:50.686Z,0.30
2022-12-28T07:01:19.413Z,0.40
2022-12-28T07:03:49.724Z,0.20
2022-12-28T07:06:18.404Z,0.40
2022-12-28T07:08:46.354Z,0.40
2022-12-28T07:11:14.920Z,0.30
2022-12-28T07:13:42.806Z,0.40
2022-12-28T07:16:13.540Z,0.40
2022-12-28T07:18:41.437Z,0.40
2022-12-28T07:21:12.404Z,0.60
2022-12-28T07:23:40.239Z,0.50
2022-12-28T07:26:09.652Z,0.40
2022-12-28T07:28:38.447Z,0.50
2022-12-28T07:31:08.300Z,0.60
2022-12-28T07:33:36.842Z,0.50
2022-12-28T07:36:05.086Z,0.40
2022-12-28T07:38:34.550Z,0.60
2022-12-28T07:41:03.285Z,0.70
2022-12-28T07:43:31.372Z,0.70
2022-12-28T07:46:03.268Z,0.70
2022-12-28T07:48:32.405Z,0.60
2022-12-28T07:51:06.017Z,0.60
2022-12-28T07:53:35.578Z,0.60
2022-12-28T07:56:03.393Z,0.60
2022-12-28T07:58:31.211Z,0.80
2022-12-28T08:01:05.362Z,0.80
2022-12-28T08:03:34.215Z,0.70
2022-12-28T08:06:06.739Z,1.60
2022-12-28T08:08:37.141Z,1.30
2022-12-28T08:11:06.047Z,1.40
2022-12-28T08:13:34.664Z,1.60
2022-12-28T08:16:02.809Z,1.60
2022-12-28T08:18:31.171Z,1.50
2022-12-28T08:21:01.910Z,1.50
2022-12-28T08:23:30.261Z,1.70
2022-12-28T08:26:06.266Z,1.60
2022-12-28T08:28:34.221Z,1.70
2022-12-28T08:31:07.322Z,1.80
2022-12-28T08:33:35.212Z,1.90
2022-12-28T08:36:03.258Z,1.90
2022-12-28T08:38:31.175Z,3.50
2022-12-28T08:41:01.114Z,4.00
2022-12-28T08:43:29.008Z,4.10
2022-12-28T08:46:00.513Z,4.00
2022-12-28T08:48:28.775Z,3.70
2022-12-28T08:50:56.607Z,3.90
2022-12-28T08:53:25.093Z,4.50
2022-12-28T08:55:53.061Z,5.00
2022-12-28T08:58:23.346Z,5.30
2022-12-28T09:00:51.158Z,5.50
2022-12-28T09:03:19.093Z,5.30
2022-12-28T09:05:47.914Z,5.00
2022-12-28T09:08:19.079Z,4.70
2022-12-28T09:10:46.925Z,4.80
2022-12-28T09:13:14.809Z,4.90
2022-12-28T09:15:44.028Z,4.90
2022-12-28T09:18:11.886Z,4.80
2022-12-28T09:20:44.440Z,4.70
2022-12-28T09:23:15.455Z,4.70
2022-12-28T09:25:43.395Z,4.70
2022-12-28T09:28:11.248Z,4.60
2022-12-28T09:30:39.331Z,4.70
2022-12-28T09:33:26.143Z,4.60
2022-12-28T09:35:58.774Z,4.70
2022-12-28T09:38:26.680Z,4.90
2022-12-28T09:40:54.503Z,4.70
2022-12-28T09:43:22.387Z,4.90
2022-12-28T09:45:50.188Z,5.20
2022-12-28T09:48:19.693Z,5.40
2022-12-28T09:50:47.531Z,5.60
2022-12-28T09:53:23.235Z,5.20
2022-12-28T09:56:02.292Z,5.00
2022-12-28T09:58:30.506Z,5.40
2022-12-28T10:00:59.191Z,6.00
2022-12-28T10:03:32.469Z,6.60
2022-12-28T10:06:00.303Z,6.50
2022-12-28T10:08:28.424Z,6.30
2022-12-28T10:10:58.619Z,6.50
2022-12-28T10:16:17.778Z,6.90
2022-12-28T10:18:47.263Z,7.00
2022-12-28T10:21:15.588Z,7.40
2022-12-28T10:24:04.682Z,7.70
2022-12-28T10:26:32.102Z,7.80
2022-12-28T10:29:00.868Z,7.90
2022-12-28T10:31:33.468Z,7.70
2022-12-28T10:34:02.753Z,7.30
2022-12-28T10:36:34.231Z,7.00
2022-12-28T10:39:02.099Z,6.80
2022-12-28T10:41:35.323Z,6.80
2022-12-28T10:44:38.277Z,6.50
2022-12-28T10:47:01.785Z,6.50
2022-12-28T10:49:33.676Z,6.70
2022-12-28T10:52:03.380Z,6.90
2022-12-28T10:54:33.634Z,6.70
2022-12-28T10:57:01.481Z,7.20
2022-12-28T10:59:29.831Z,6.90
2022-12-28T11:02:22.071Z,7.00
2022-12-28T11:04:58.922Z,7.60
2022-12-28T11:07:31.820Z,7.80
2022-12-28T11:10:16.437Z,7.40
2022-12-28T11:12:45.356Z,7.20
2022-12-28T11:15:15.360Z,7.10
2022-12-28T11:17:43.276Z,6.90
2022-12-28T11:20:17.425Z,7.10
2022-12-28T11:22:45.741Z,7.20
2022-12-28T11:25:15.750Z,7.40
2022-12-28T11:27:43.699Z,7.70
2022-12-28T11:30:17.429Z,7.90
2022-12-28T11:32:49.412Z,7.90
2022-12-28T11:35:19.240Z,8.00
2022-12-28T11:37:51.379Z,8.20
2022-12-28T11:40:55.850Z,8.20
2022-12-28T11:43:50.637Z,8.10
2022-12-28T11:46:37.920Z,8.40
2022-12-28T11:49:06.084Z,8.50
2022-12-28T11:51:35.725Z,8.50
2022-12-28T11:54:04.393Z,8.70
2022-12-28T11:56:59.059Z,8.80
2022-12-28T11:59:27.545Z,9.10
2022-12-28T12:01:56.992Z,9.10
2022-12-28T12:04:38.806Z,8.90
2022-12-28T12:07:31.800Z,8.70
2022-12-28T12:10:21.731Z,8.70
2022-12-28T12:12:51.567Z,8.70
2022-12-28T12:15:20.814Z,8.50
2022-12-28T12:17:50.303Z,8.60
2022-12-28T12:20:53.589Z,8.60
2022-12-28T12:23:27.700Z,8.50
2022-12-28T12:25:55.583Z,8.60
2022-12-28T12:28:32.513Z,8.50
2022-12-28T12:31:00.553Z,8.30
2022-12-28T12:33:29.341Z,8.30
2022-12-28T12:36:00.647Z,8.10
2022-12-28T12:38:37.929Z,7.90
2022-12-28T12:41:27.447Z,7.90
2022-12-28T12:44:06.908Z,8.00
2022-12-28T12:47:05.959Z,8.20
2022-12-28T12:49:43.945Z,8.20
2022-12-28T12:52:19.071Z,8.20
2022-12-28T12:54:55.164Z,8.40
2022-12-28T12:57:25.123Z,8.70
2022-12-28T13:00:06.730Z,9.00
2022-12-28T13:02:55.019Z,9.20
2022-12-28T13:05:23.745Z,9.10
2022-12-28T13:07:53.075Z,9.00
2022-12-28T13:10:25.237Z,8.90
2022-12-28T13:12:53.206Z,9.00
2022-12-28T13:15:21.234Z,9.00
2022-12-28T13:18:42.945Z,9.10
2022-12-28T13:20:59.913Z,9.00
2022-12-28T13:23:28.321Z,8.80
2022-12-28T13:25:58.490Z,8.90
2022-12-28T13:28:29.044Z,8.70
2022-12-28T13:31:09.092Z,8.80
2022-12-28T13:33:36.979Z,8.80
2022-12-28T13:36:20.495Z,8.90
2022-12-28T13:38:48.857Z,8.70
2022-12-28T13:41:21.718Z,8.40
2022-12-28T13:44:13.258Z,8.40
2022-12-28T13:46:41.500Z,8.10
2022-12-28T13:49:09.526Z,8.00
2022-12-28T13:51:37.427Z,7.90
2022-12-28T13:54:05.563Z,7.90
2022-12-28T13:56:35.898Z,7.80
2022-12-28T13:59:05.759Z,7.90
2022-12-28T14:01:36.611Z,7.80
2022-12-28T14:04:42.332Z,7.90
2022-12-28T14:06:53.909Z,8.00
2022-12-28T14:09:21.755Z,8.00
2022-12-28T14:11:50.956Z,8.00
2022-12-28T14:14:19.289Z,8.00
2022-12-28T14:16:47.543Z,8.00
2022-12-28T14:19:15.467Z,8.00
2022-12-28T14:21:45.042Z,8.00
2022-12-28T14:24:13.988Z,8.00
2022-12-28T14:26:45.956Z,7.90
2022-12-28T14:29:19.952Z,7.80
2022-12-28T14:31:48.081Z,7.70
2022-12-28T14:34:24.137Z,7.70
2022-12-28T14:36:52.893Z,7.60
2022-12-28T14:39:26.419Z,7.60
2022-12-28T14:41:54.226Z,7.50
2022-12-28T14:44:27.364Z,7.30
2022-12-28T14:46:55.729Z,7.40
2022-12-28T14:49:33.404Z,7.40
2022-12-28T14:52:38.907Z,7.30
2022-12-28T14:55:21.982Z,7.00
2022-12-28T14:57:51.216Z,7.00
2022-12-28T15:00:25.516Z,6.80
2022-12-28T15:02:53.727Z,6.70
2022-12-28T15:05:39.275Z,6.70
2022-12-28T15:08:07.525Z,6.60
2022-12-28T15:10:36.969Z,6.60
2022-12-28T15:13:04.792Z,6.40
2022-12-28T15:15:34.025Z,6.40
2022-12-28T15:18:01.910Z,6.20
2022-12-28T15:20:29.806Z,5.90
2022-12-28T15:22:57.619Z,6.00
2022-12-28T15:25:25.508Z,5.80
2022-12-28T15:27:53.402Z,6.00
2022-12-28T15:30:25.761Z,5.70
2022-12-28T15:32:58.060Z,5.90
2022-12-28T15:35:26.019Z,5.60
2022-12-28T15:37:53.876Z,5.80
2022-12-28T15:40:21.750Z,5.50
2022-12-28T15:42:49.701Z,5.60
2022-12-28T15:45:17.594Z,5.50
2022-12-28T15:47:45.543Z,5.50
2022-12-28T15:50:14.687Z,5.50
2022-12-28T15:52:42.445Z,5.50
2022-12-28T15:55:10.581Z,5.60
2022-12-28T15:57:38.606Z,5.30
2022-12-28T16:00:07.571Z,5.30
2022-12-28T16:02:35.735Z,5.20
2022-12-28T16:05:03.780Z,5.20
2022-12-28T16:07:32.963Z,5.10
2022-12-28T16:10:00.878Z,4.90
2022-12-28T16:12:28.849Z,4.90
2022-12-28T16:14:56.823Z,4.90
2022-12-28T16:17:24.689Z,4.90
2022-12-28T16:19:52.472Z,4.80
2022-12-28T16:22:20.280Z,4.80
2022-12-28T16:24:49.714Z,4.90
2022-12-28T16:27:17.706Z,4.90
2022-12-28T16:29:46.304Z,4.80
2022-12-28T16:32:14.124Z,4.70
2022-12-28T16:34:41.917Z,4.60
2022-12-28T16:37:10.236Z,4.50
2022-12-28T16:39:38.855Z,4.60
2022-12-28T16:42:08.580Z,4.50
2022-12-28T16:44:38.190Z,4.60
2022-12-28T16:47:06.605Z,4.30
2022-12-28T16:49:34.424Z,4.30
2022-12-28T16:52:02.247Z,4.30
2022-12-28T16:54:30.035Z,4.00
2022-12-28T16:56:57.841Z,4.10
2022-12-28T16:59:27.790Z,3.90
2022-12-28T17:01:56.436Z,3.90
2022-12-28T17:04:24.453Z,3.90
2022-12-28T17:06:52.393Z,3.80
2022-12-28T17:09:20.261Z,3.80
2022-12-28T17:11:48.693Z,3.70
2022-12-28T17:14:29.122Z,3.70
2022-12-28T17:17:05.021Z,3.70
2022-12-28T17:19:33.019Z,3.70
2022-12-28T17:22:00.952Z,3.80
2022-12-28T17:24:28.779Z,3.70
2022-12-28T17:26:58.233Z,3.70
2022-12-28T17:29:29.649Z,3.70
2022-12-28T17:31:57.465Z,3.70
2022-12-28T17:34:28.218Z,3.70
2022-12-28T17:36:56.097Z,3.70
2022-12-28T17:39:23.936Z,3.80
2022-12-28T17:41:51.849Z,3.60
2022-12-28T17:44:19.776Z,3.30
2022-12-28T17:46:47.658Z,3.20
2022-12-28T17:49:16.147Z,3.50
2022-12-28T17:51:45.672Z,3.20
2022-12-28T17:54:13.825Z,3.10
2022-12-28T17:56:41.748Z,3.00
2022-12-28T17:59:12.160Z,2.90
2022-12-28T18:01:43.769Z,2.90
2022-12-28T18:04:12.241Z,2.90
2022-12-28T18:06:40.232Z,3.00
2022-12-28T18:09:09.380Z,3.10
2022-12-28T18:11:37.165Z,3.10
2022-12-28T18:14:05.001Z,3.30
2022-12-28T18:16:32.861Z,3.00
2022-12-28T18:19:00.962Z,3.00
2022-12-28T18:21:28.753Z,3.10
2022-12-28T18:23:56.568Z,3.00
2022-12-28T18:26:27.037Z,3.00
2022-12-28T18:28:55.030Z,2.90
2022-12-28T18:31:23.102Z,2.90
2022-12-28T18:33:51.039Z,2.90
2022-12-28T18:36:18.916Z,2.90
2022-12-28T18:38:47.068Z,2.60
2022-12-28T18:41:16.145Z,2.50
2022-12-28T18:43:45.346Z,2.60
2022-12-28T18:46:13.253Z,2.70
2022-12-28T18:48:41.477Z,2.50
2022-12-28T18:51:10.037Z,2.30
2022-12-28T18:53:37.854Z,2.30
2022-12-28T18:56:06.957Z,2.50
2022-12-28T18:58:35.708Z,2.50
2022-12-28T19:01:05.201Z,2.40
2022-12-28T19:03:33.404Z,2.20
2022-12-28T19:06:03.204Z,2.10
2022-12-28T19:08:31.691Z,2.20
2022-12-28T19:10:59.577Z,2.10
2022-12-28T19:13:27.660Z,2.10
2022-12-28T19:15:55.551Z,2.00
2022-12-28T19:18:24.801Z,1.90
2022-12-28T19:20:56.856Z,2.10
2022-12-28T19:23:24.667Z,1.80
2022-12-28T19:25:54.555Z,1.80
2022-12-28T19:28:22.394Z,1.70
2022-12-28T19:30:51.148Z,2.00
2022-12-28T19:33:18.967Z,1.90
2022-12-28T19:35:51.256Z,1.80
2022-12-28T19:38:19.049Z,2.00
2022-12-28T19:40:46.859Z,2.10
2022-12-28T19:43:14.673Z,1.90
2022-12-28T19:45:42.464Z,2.20
2022-12-28T19:48:10.433Z,2.20
2022-12-28T19:50:38.818Z,2.30
2022-12-28T19:53:07.960Z,2.40
2022-12-28T19:55:35.944Z,2.40
2022-12-28T19:58:04.082Z,2.40
2022-12-28T20:00:31.886Z,2.40
2022-12-28T20:02:59.715Z,2.30
2022-12-28T20:05:29.348Z,2.10
2022-12-28T20:07:57.182Z,2.00
2022-12-28T20:10:26.328Z,2.20
2022-12-28T20:12:54.192Z,2.10
2022-12-28T20:15:21.982Z,2.10
2022-12-28T20:17:49.789Z,1.80
2022-12-28T20:20:19.600Z,2.00
2022-12-28T20:22:50.416Z,2.20
2022-12-28T20:25:18.380Z,2.40
2022-12-28T20:27:47.599Z,3.20
2022-12-28T20:30:15.653Z,4.30
2022-12-28T20:32:45.037Z,3.90
2022-12-28T20:35:13.139Z,2.80
2022-12-28T20:37:41.180Z,2.70
2022-12-28T20:40:09.933Z,2.50
2022-12-28T20:42:55.158Z,2.30
2022-12-28T20:45:24.378Z,2.20
2022-12-28T20:47:53.412Z,2.10
2022-12-28T20:50:21.218Z,1.90
2022-12-28T20:52:49.024Z,1.80
2022-12-28T20:55:16.970Z,2.00
2022-12-28T20:57:45.337Z,1.90
2022-12-28T21:00:14.348Z,1.70
2022-12-28T21:02:43.463Z,2.00
2022-12-28T21:05:11.277Z,2.30
2022-12-28T21:07:39.085Z,2.40
2022-12-28T21:10:07.699Z,2.40
2022-12-28T21:12:35.509Z,2.60
2022-12-28T21:15:03.376Z,2.80
2022-12-28T21:17:31.156Z,2.70
2022-12-28T21:20:00.288Z,2.60
2022-12-28T21:22:28.052Z,2.60
2022-12-28T21:24:55.823Z,2.60
2022-12-28T21:27:23.660Z,2.70
2022-12-28T21:29:51.481Z,2.50
2022-12-28T21:32:19.267Z,2.70
2022-12-28T21:34:47.076Z,2.60
2022-12-28T21:37:33.877Z,2.90
2022-12-28T21:40:01.797Z,2.90
2022-12-28T21:42:29.654Z,3.00
2022-12-28T21:44:57.440Z,3.10
2022-12-28T21:47:25.249Z,3.10
2022-12-28T21:49:53.062Z,3.10
2022-12-28T21:52:22.275Z,3.00
2022-12-28T21:54:50.083Z,2.90
2022-12-28T21:57:17.911Z,2.90
2022-12-28T21:59:45.718Z,2.90
2022-12-28T22:02:32.903Z,2.80
2022-12-28T22:05:17.811Z,2.80
2022-12-28T22:07:47.046Z,2.90
2022-12-28T22:10:32.633Z,3.00
2022-12-28T22:13:00.482Z,2.80
2022-12-28T22:15:45.990Z,3.00
2022-12-28T22:18:44.505Z,3.10
2022-12-28T22:21:07.169Z,3.20
2022-12-28T22:23:36.331Z,3.00
2022-12-28T22:26:04.181Z,3.00
2022-12-28T22:28:31.967Z,3.00
2022-12-28T22:30:59.801Z,2.90
2022-12-28T22:33:27.591Z,3.00
2022-12-28T22:35:55.391Z,3.00
2022-12-28T22:38:23.210Z,3.10
2022-12-28T22:40:58.836Z,3.30
2022-12-28T22:43:26.643Z,3.40
2022-12-28T22:46:01.865Z,3.40
2022-12-28T22:48:30.526Z,3.40
2022-12-28T22:51:02.382Z,3.50
2022-12-28T22:53:30.208Z,3.50
2022-12-28T22:55:59.828Z,3.40
2022-12-28T22:58:27.771Z,3.40
2022-12-28T23:01:04.840Z,3.40
2022-12-28T23:03:32.715Z,3.50
2022-12-28T23:06:00.539Z,3.50
2022-12-28T23:08:28.390Z,3.50
2022-12-28T23:10:56.745Z,3.40
2022-12-28T23:13:26.739Z,3.50
2022-12-28T23:15:57.570Z,3.50
2022-12-28T23:18:43.102Z,3.50
2022-12-28T23:21:33.636Z,3.50
2022-12-28T23:24:18.996Z,3.70
2022-12-28T23:27:04.519Z,3.50
2022-12-28T23:29:33.673Z,3.30
2022-12-28T23:32:01.550Z,3.20
2022-12-28T23:34:29.366Z,3.20
2022-12-28T23:36:57.173Z,3.00
2022-12-28T23:39:25.153Z,2.80
2022-12-28T23:41:53.172Z,3.10
2022-12-28T23:44:22.008Z,3.10
2022-12-28T23:46:53.925Z,3.10
2022-12-28T23:49:26.307Z,3.10
2022-12-28T23:51:54.089Z,2.90
2022-12-28T23:54:22.173Z,2.90
2022-12-28T23:56:50.067Z,2.90
2022-12-28T23:59:17.992Z,2.90
